Time;durP1;ratioP1;P1;durP2;ratioP2;P2;SDS_P1;SDS_P2;PMS_P1;PMS_P2;Temp;Humidity;BMP_temperature;BMP_pressure;BME280_temperature;BME280_humidity;BME280_pressure;Samples;Min_cycle;Max_cycle;Signal;HPM_P1;HPM_P2
2021/03/02 00:00:22;;;;;;;122.80;46.78;;;3.40;99.00;;;;;;4955607;28;20043;-79
2021/03/02 00:02:49;;;;;;;116.65;42.45;;;3.40;99.00;;;;;;4955035;28;20051;-79
2021/03/02 00:05:15;;;;;;;125.70;46.78;;;3.30;99.00;;;;;;4954230;28;20150;-80
2021/03/02 00:07:41;;;;;;;126.28;47.17;;;3.30;99.10;;;;;;4953638;28;20039;-80
2021/03/02 00:10:09;;;;;;;127.53;48.17;;;3.40;99.00;;;;;;4937225;29;20126;-80
2021/03/02 00:12:36;;;;;;;119.00;45.58;;;3.30;99.00;;;;;;4955270;28;20051;-79
2021/03/02 00:15:04;;;;;;;114.90;43.67;;;3.30;99.10;;;;;;4936219;29;20085;-80
2021/03/02 00:17:35;;;;;;;129.23;48.22;;;3.30;99.50;;;;;;4937728;28;20055;-79
2021/03/02 00:20:10;;;;;;;126.57;46.10;;;3.30;99.10;;;;;;4954431;28;20039;-79
2021/03/02 00:22:53;;;;;;;127.85;45.40;;;3.30;99.30;;;;;;4936221;29;20043;-80
2021/03/02 00:25:19;;;;;;;148.70;49.35;;;3.30;99.40;;;;;;4954545;29;20086;-80
2021/03/02 00:27:46;;;;;;;133.07;45.58;;;3.30;99.40;;;;;;4936586;29;20047;-80
2021/03/02 00:30:15;;;;;;;140.27;48.88;;;3.30;99.40;;;;;;4953425;28;20039;-80
2021/03/02 00:32:45;;;;;;;141.02;48.50;;;3.30;99.40;;;;;;4936092;29;20385;-80
2021/03/02 00:35:11;;;;;;;145.15;49.83;;;3.30;99.40;;;;;;4936834;29;20047;-80
2021/03/02 00:37:37;;;;;;;143.13;47.20;;;3.30;99.40;;;;;;4937061;29;20059;-80
2021/03/02 00:40:03;;;;;;;146.73;49.10;;;3.30;99.50;;;;;;4954802;29;20074;-80
2021/03/02 00:42:29;;;;;;;143.98;48.80;;;3.30;99.40;;;;;;4937730;29;20391;-81
2021/03/02 00:44:54;;;;;;;129.38;45.88;;;3.30;99.40;;;;;;4953569;28;20039;-80
2021/03/02 00:47:20;;;;;;;137.68;48.38;;;3.20;99.30;;;;;;4953407;28;20464;-80
2021/03/02 00:49:48;;;;;;;134.02;46.78;;;3.30;99.40;;;;;;4955669;29;20040;-79
2021/03/02 00:52:14;;;;;;;134.13;47.20;;;3.20;99.30;;;;;;4935487;29;20631;-80
2021/03/02 00:54:40;;;;;;;131.15;47.67;;;3.20;99.30;;;;;;4956522;29;20074;-80
2021/03/02 00:57:06;;;;;;;128.50;45.67;;;3.20;99.60;;;;;;4952581;28;20503;-81
2021/03/02 00:59:31;;;;;;;140.90;48.90;;;3.20;99.30;;;;;;4954542;28;20047;-80
2021/03/02 01:01:57;;;;;;;127.63;47.00;;;3.10;99.20;;;;;;4952201;28;20039;-80
2021/03/02 01:04:23;;;;;;;134.15;46.80;;;3.00;99.10;;;;;;4953730;29;20127;-80
2021/03/02 01:06:49;;;;;;;131.80;47.97;;;3.10;99.10;;;;;;4952231;28;20086;-80
2021/03/02 01:09:14;;;;;;;148.38;50.85;;;3.10;99.10;;;;;;4954421;29;20472;-80
2021/03/02 01:11:40;;;;;;;138.93;49.88;;;3.10;99.20;;;;;;4951638;28;20039;-80
2021/03/02 01:14:06;;;;;;;137.75;47.13;;;3.00;99.20;;;;;;4955319;28;20035;-80
2021/03/02 01:16:32;;;;;;;140.65;47.58;;;3.00;99.10;;;;;;4952592;29;20201;-80
2021/03/02 01:18:58;;;;;;;144.02;47.85;;;3.00;99.20;;;;;;4954670;28;20043;-80
2021/03/02 01:21:24;;;;;;;149.38;48.10;;;3.00;99.20;;;;;;4952519;29;20472;-80
2021/03/02 01:23:50;;;;;;;141.60;47.70;;;3.00;99.20;;;;;;4953861;28;20035;-79
2021/03/02 01:26:16;;;;;;;145.60;48.10;;;3.00;99.30;;;;;;4937482;29;20098;-81
2021/03/02 01:28:42;;;;;;;139.95;47.78;;;2.90;99.30;;;;;;4951748;28;20106;-80
2021/03/02 01:31:08;;;;;;;141.40;47.38;;;3.00;99.40;;;;;;4951796;28;20515;-80
2021/03/02 01:33:33;;;;;;;144.40;48.40;;;2.90;99.40;;;;;;4938836;29;20051;-80
2021/03/02 01:35:59;;;;;;;136.02;49.20;;;3.00;99.40;;;;;;4958204;28;20512;-80
2021/03/02 01:38:25;;;;;;;140.85;47.85;;;3.00;99.40;;;;;;4956951;28;20107;-81
2021/03/02 01:40:51;;;;;;;144.57;47.40;;;3.00;99.40;;;;;;4958800;28;20039;-80
2021/03/02 01:43:17;;;;;;;134.07;46.67;;;3.00;99.40;;;;;;4956417;29;20413;-80
2021/03/02 01:45:42;;;;;;;146.20;47.05;;;3.00;99.40;;;;;;4957595;29;20046;-80
2021/03/02 01:48:09;;;;;;;133.10;46.88;;;3.00;99.30;;;;;;4956578;28;20057;-80
2021/03/02 01:50:34;;;;;;;134.13;44.97;;;3.00;99.40;;;;;;4940193;29;20107;-80
2021/03/02 01:53:00;;;;;;;124.32;42.78;;;3.00;99.40;;;;;;4956205;28;20398;-80
2021/03/02 01:55:26;;;;;;;122.10;45.03;;;3.00;99.50;;;;;;4959531;29;20043;-80
2021/03/02 01:57:53;;;;;;;128.93;46.13;;;3.00;99.50;;;;;;4957474;28;20067;-80
2021/03/02 02:00:29;;;;;;;124.70;45.20;;;3.00;99.40;;;;;;4958822;29;20070;-80
2021/03/02 02:03:10;;;;;;;121.30;44.92;;;3.00;99.40;;;;;;4932048;29;20102;-80
2021/03/02 02:05:50;;;;;;;123.40;44.38;;;3.00;99.40;;;;;;4958962;29;20051;-80
2021/03/02 02:08:22;;;;;;;117.25;44.10;;;2.90;99.40;;;;;;4922441;28;20099;-80
2021/03/02 02:10:59;;;;;;;117.47;44.40;;;2.90;99.40;;;;;;4958051;29;20117;-80
2021/03/02 02:13:42;;;;;;;128.55;43.38;;;2.90;99.40;;;;;;4956076;28;20126;-80
2021/03/02 02:16:10;;;;;;;125.55;44.78;;;2.90;99.40;;;;;;4958575;29;20098;-80
2021/03/02 02:18:38;;;;;;;114.97;44.20;;;2.90;99.40;;;;;;4937780;28;20051;-80
2021/03/02 02:21:45;;;;;;;123.07;44.90;;;2.90;99.40;;;;;;4941360;29;20051;-80
2021/03/02 02:24:21;;;;;;;132.50;45.67;;;2.90;99.30;;;;;;4862428;29;20056;-80
2021/03/02 02:26:58;;;;;;;119.63;45.45;;;2.80;99.40;;;;;;4864065;29;20132;-80
2021/03/02 02:29:28;;;;;;;123.68;44.03;;;2.80;99.50;;;;;;4924655;28;20043;-80
2021/03/02 02:31:58;;;;;;;124.15;46.15;;;2.80;99.50;;;;;;4951184;28;20042;-80
2021/03/02 02:34:26;;;;;;;120.88;44.63;;;2.80;99.50;;;;;;4939139;29;20039;-80
2021/03/02 02:36:54;;;;;;;125.65;45.10;;;2.70;99.40;;;;;;4950990;28;20062;-80
2021/03/02 02:39:21;;;;;;;126.20;45.72;;;2.70;99.40;;;;;;4956820;28;20046;-80
2021/03/02 02:41:48;;;;;;;130.15;47.60;;;2.70;99.30;;;;;;4958444;29;20456;-80
2021/03/02 02:44:16;;;;;;;123.22;45.83;;;2.70;99.40;;;;;;4939293;28;20050;-81
2021/03/02 02:46:43;;;;;;;121.70;44.22;;;2.70;99.40;;;;;;4956976;29;20031;-80
2021/03/02 02:49:11;;;;;;;133.40;46.33;;;2.70;99.40;;;;;;4940590;28;20484;-81
2021/03/02 02:51:38;;;;;;;136.43;47.85;;;2.60;99.40;;;;;;4961902;28;20051;-80
2021/03/02 02:54:07;;;;;;;132.32;44.83;;;2.60;99.40;;;;;;4958727;28;20086;-80
2021/03/02 02:56:36;;;;;;;129.15;45.33;;;2.60;99.50;;;;;;4956476;28;20124;-81
2021/03/02 02:59:04;;;;;;;138.73;46.08;;;2.50;99.40;;;;;;4959269;29;20062;-81
2021/03/02 03:01:34;;;;;;;130.60;45.05;;;2.50;99.50;;;;;;4938512;29;20067;-81
2021/03/02 03:04:07;;;;;;;128.55;45.22;;;2.50;99.50;;;;;;4957344;28;20090;-80
2021/03/02 03:06:37;;;;;;;127.43;45.63;;;2.50;99.60;;;;;;4951864;28;20157;-80
2021/03/02 03:09:05;;;;;;;126.78;45.47;;;2.50;99.60;;;;;;4956771;28;20043;-80
2021/03/02 03:11:45;;;;;;;127.15;44.00;;;2.40;99.50;;;;;;4954858;29;20436;-80
2021/03/02 03:14:14;;;;;;;136.85;46.25;;;2.40;99.60;;;;;;4956862;29;20051;-80
2021/03/02 03:16:43;;;;;;;135.43;46.47;;;2.40;99.60;;;;;;4936502;28;20468;-80
2021/03/02 03:19:33;;;;;;;127.85;44.70;;;2.40;99.60;;;;;;4938528;29;20448;-80
2021/03/02 03:22:01;;;;;;;131.15;44.00;;;2.40;99.60;;;;;;4955367;29;20065;-80
2021/03/02 03:24:27;;;;;;;130.90;45.13;;;2.40;99.60;;;;;;4939315;29;20046;-80
2021/03/02 03:26:54;;;;;;;128.85;43.63;;;2.30;99.60;;;;;;4954884;28;20128;-80
2021/03/02 03:29:22;;;;;;;134.73;45.95;;;2.40;99.70;;;;;;4956002;28;20118;-80
2021/03/02 03:31:48;;;;;;;127.63;45.75;;;2.40;99.90;;;;;;4953815;28;20049;-80
2021/03/02 03:34:15;;;;;;;136.57;44.08;;;2.40;99.70;;;;;;4958424;29;20035;-80
2021/03/02 03:36:42;;;;;;;138.00;46.30;;;2.40;99.80;;;;;;4936013;29;20065;-80
2021/03/02 03:39:08;;;;;;;138.98;45.70;;;2.50;99.80;;;;;;4956655;28;20420;-79
2021/03/02 03:41:34;;;;;;;130.05;44.50;;;2.50;99.70;;;;;;4954478;29;20081;-80
2021/03/02 03:44:00;;;;;;;116.10;37.58;;;2.50;99.80;;;;;;4938821;28;20043;-79
2021/03/02 03:46:26;;;;;;;132.13;43.90;;;2.50;99.90;;;;;;4955359;29;20157;-79
2021/03/02 03:48:53;;;;;;;137.45;46.63;;;2.50;99.90;;;;;;4953775;29;20043;-80
2021/03/02 03:51:21;;;;;;;128.52;44.88;;;2.50;99.90;;;;;;4956293;28;20088;-80
2021/03/02 03:53:48;;;;;;;140.07;45.80;;;2.50;99.90;;;;;;4954778;29;20057;-80
2021/03/02 03:56:14;;;;;;;146.65;47.25;;;2.60;99.90;;;;;;4957182;28;20387;-80
2021/03/02 03:58:41;;;;;;;135.32;44.20;;;2.60;99.90;;;;;;4954899;29;20528;-80
2021/03/02 04:01:08;;;;;;;152.45;47.67;;;2.60;99.90;;;;;;4955888;28;20039;-80
2021/03/02 04:03:34;;;;;;;138.95;44.83;;;2.60;99.90;;;;;;4937017;29;20468;-80
2021/03/02 04:06:01;;;;;;;140.85;45.28;;;2.60;99.90;;;;;;4938958;29;20126;-80
2021/03/02 04:08:28;;;;;;;132.00;45.10;;;2.60;99.90;;;;;;4936979;29;20055;-80
2021/03/02 04:10:55;;;;;;;131.95;44.20;;;2.60;99.90;;;;;;4955345;28;20085;-80
2021/03/02 04:13:21;;;;;;;124.57;45.88;;;2.60;99.90;;;;;;4954198;29;20031;-80
2021/03/02 04:15:47;;;;;;;116.75;40.22;;;2.60;99.90;;;;;;4955413;28;20049;-80
2021/03/02 04:18:17;;;;;;;125.70;44.55;;;2.60;99.90;;;;;;4954208;28;20070;-80
2021/03/02 04:20:45;;;;;;;149.02;48.03;;;2.60;99.90;;;;;;4955460;29;20496;-80
2021/03/02 04:23:11;;;;;;;140.68;44.88;;;2.60;99.90;;;;;;4955799;29;20372;-80
2021/03/02 04:25:37;;;;;;;143.60;46.40;;;2.60;99.90;;;;;;4954451;28;20043;-80
2021/03/02 04:28:04;;;;;;;131.02;41.85;;;2.60;99.90;;;;;;4955864;28;20427;-80
2021/03/02 04:30:30;;;;;;;143.50;46.78;;;2.60;99.90;;;;;;4953343;29;20043;-80
2021/03/02 04:32:56;;;;;;;140.85;46.38;;;2.60;99.90;;;;;;4955680;28;20573;-80
2021/03/02 04:35:22;;;;;;;150.75;44.28;;;2.60;99.90;;;;;;4955113;29;20091;-80
2021/03/02 04:37:48;;;;;;;154.85;46.28;;;2.60;99.90;;;;;;4956100;28;20047;-80
2021/03/02 04:40:15;;;;;;;154.27;44.17;;;2.60;99.90;;;;;;4953860;28;20036;-80
2021/03/02 04:42:42;;;;;;;167.27;46.25;;;2.60;99.90;;;;;;4938155;29;20055;-80
2021/03/02 04:45:09;;;;;;;166.60;48.35;;;2.60;99.90;;;;;;4953998;28;20031;-80
2021/03/02 04:47:36;;;;;;;162.25;47.67;;;2.60;99.90;;;;;;4937771;29;20054;-80
2021/03/02 04:50:04;;;;;;;149.13;45.20;;;2.60;99.90;;;;;;4952993;28;20054;-80
2021/03/02 04:52:29;;;;;;;161.60;48.28;;;2.60;99.90;;;;;;4938433;29;20055;-80
2021/03/02 04:54:56;;;;;;;157.25;47.92;;;2.60;99.90;;;;;;4936304;29;20107;-80
2021/03/02 04:57:22;;;;;;;154.57;45.03;;;2.60;99.90;;;;;;4954983;28;20039;-80
2021/03/02 04:59:47;;;;;;;153.80;47.95;;;2.60;99.90;;;;;;4954114;28;20124;-80
2021/03/02 05:02:13;;;;;;;161.30;47.08;;;2.60;99.90;;;;;;4955768;29;20047;-80
2021/03/02 05:04:39;;;;;;;164.73;46.90;;;2.60;99.90;;;;;;4953834;28;20055;-80
2021/03/02 05:07:05;;;;;;;164.68;48.05;;;2.60;99.90;;;;;;4936828;29;20031;-80
2021/03/02 05:09:31;;;;;;;155.70;46.38;;;2.60;99.90;;;;;;4960398;29;20050;-80
2021/03/02 05:11:57;;;;;;;147.30;45.15;;;2.60;99.90;;;;;;4957639;28;20085;-80
2021/03/02 05:14:23;;;;;;;144.57;39.55;;;2.60;99.90;;;;;;4960430;29;20044;-80
2021/03/02 05:16:49;;;;;;;157.10;43.25;;;2.60;99.90;;;;;;4956664;28;20046;-80
2021/03/02 05:19:15;;;;;;;153.63;42.40;;;2.60;99.90;;;;;;4958968;29;20062;-80
2021/03/02 05:21:42;;;;;;;166.50;45.70;;;2.50;99.90;;;;;;4939040;28;20645;-80
2021/03/02 05:24:08;;;;;;;163.40;46.45;;;2.50;99.90;;;;;;4959034;29;20138;-80
2021/03/02 05:26:34;;;;;;;166.93;47.35;;;2.50;99.90;;;;;;4956380;28;20090;-79
2021/03/02 05:29:00;;;;;;;165.25;48.50;;;2.50;99.90;;;;;;4959100;28;20043;-80
2021/03/02 05:31:26;;;;;;;182.10;47.10;;;2.50;99.90;;;;;;4957536;29;20451;-80
2021/03/02 05:33:51;;;;;;;165.35;46.38;;;2.60;99.90;;;;;;4941354;29;20035;-79
2021/03/02 05:36:17;;;;;;;164.60;45.70;;;2.50;99.90;;;;;;4939078;29;23912;-79
2021/03/02 05:38:43;;;;;;;152.52;45.05;;;2.50;99.90;;;;;;4957104;28;20126;-81
2021/03/02 05:41:10;;;;;;;143.60;42.15;;;2.50;99.90;;;;;;4940190;29;20058;-80
2021/03/02 05:43:42;;;;;;;168.48;46.80;;;2.50;99.90;;;;;;4957714;28;20043;-79
2021/03/02 05:46:09;;;;;;;151.77;44.47;;;2.50;99.90;;;;;;4958034;29;20053;-79
2021/03/02 05:48:36;;;;;;;172.20;49.17;;;2.40;99.90;;;;;;4956716;29;20214;-79
2021/03/02 05:51:02;;;;;;;177.52;47.13;;;2.50;99.90;;;;;;4940547;29;20051;-80
2021/03/02 05:53:28;;;;;;;171.82;46.28;;;2.50;99.90;;;;;;4956316;29;20522;-81
2021/03/02 05:55:56;;;;;;;186.32;46.53;;;2.50;99.90;;;;;;4958309;29;20039;-80
2021/03/02 05:58:24;;;;;;;167.80;46.92;;;2.50;99.90;;;;;;4939011;29;20118;-79
2021/03/02 06:00:50;;;;;;;183.18;48.28;;;2.50;99.90;;;;;;4941001;29;20487;-80
2021/03/02 06:03:15;;;;;;;175.75;47.35;;;2.50;99.90;;;;;;4955721;29;20102;-80
2021/03/02 06:05:41;;;;;;;182.13;44.33;;;2.40;99.90;;;;;;4958161;29;20563;-81
2021/03/02 06:08:08;;;;;;;191.23;44.40;;;2.40;99.90;;;;;;4939051;29;20035;-80
2021/03/02 06:10:35;;;;;;;196.68;49.42;;;2.40;99.90;;;;;;4957896;29;20043;-80
2021/03/02 06:13:01;;;;;;;202.98;50.40;;;2.40;99.90;;;;;;4939145;29;20043;-81
2021/03/02 06:15:34;;;;;;;205.30;49.95;;;2.40;99.90;;;;;;4957702;29;20488;-80
2021/03/02 06:18:20;;;;;;;210.90;50.85;;;2.40;99.90;;;;;;4957574;28;20049;-80
2021/03/02 06:21:20;;;;;;;180.82;48.35;;;2.40;99.90;;;;;;4957104;29;20096;-79
2021/03/02 06:23:57;;;;;;;207.52;48.33;;;2.40;99.90;;;;;;4957368;29;20051;-78
2021/03/02 06:26:29;;;;;;;237.48;47.67;;;2.50;99.90;;;;;;4939026;29;20440;-79
2021/03/02 06:29:43;;;;;;;197.50;44.38;;;2.40;99.90;;;;;;4949841;29;20039;-79
2021/03/02 06:32:09;;;;;;;194.77;46.17;;;2.40;99.90;;;;;;4911190;29;20086;-78
2021/03/02 06:34:49;;;;;;;199.95;47.08;;;2.40;99.90;;;;;;4954554;29;20035;-78
2021/03/02 06:37:54;;;;;;;202.85;47.85;;;2.30;99.90;;;;;;4941340;29;20399;-79
2021/03/02 06:40:52;;;;;;;231.88;50.10;;;2.40;99.90;;;;;;4955146;28;20035;-80
2021/03/02 06:43:38;;;;;;;201.70;44.20;;;2.40;99.90;;;;;;4943337;29;20130;-80
2021/03/02 06:46:06;;;;;;;195.70;48.30;;;2.30;99.90;;;;;;4955254;29;20043;-79
2021/03/02 06:48:33;;;;;;;254.45;48.78;;;2.40;99.90;;;;;;4955505;29;20396;-78
2021/03/02 06:50:59;;;;;;;241.77;62.08;;;2.40;99.90;;;;;;4953477;29;20048;-78
2021/03/02 06:53:25;;;;;;;208.88;51.80;;;2.40;99.90;;;;;;4950347;29;20091;-76
2021/03/02 06:55:51;;;;;;;233.20;47.85;;;2.40;99.90;;;;;;4928910;29;20051;-76
2021/03/02 06:58:21;;;;;;;207.35;48.47;;;2.40;99.90;;;;;;4948681;29;20063;-77
2021/03/02 07:00:53;;;;;;;216.57;47.13;;;2.50;99.90;;;;;;4948471;29;20067;-77
2021/03/02 07:03:30;;;;;;;173.20;48.42;;;2.50;99.90;;;;;;4949745;29;20437;-76
2021/03/02 07:06:02;;;;;;;202.35;48.80;;;2.50;99.90;;;;;;4945252;29;20055;-76
2021/03/02 07:08:29;;;;;;;192.15;46.63;;;2.50;99.90;;;;;;4953669;29;20051;-79
2021/03/02 07:10:55;;;;;;;184.73;46.72;;;2.50;99.90;;;;;;4951723;29;20117;-77
2021/03/02 07:13:22;;;;;;;197.25;45.17;;;2.50;99.90;;;;;;4951981;29;20036;-77
2021/03/02 07:15:53;;;;;;;199.60;48.50;;;2.50;99.90;;;;;;4950194;29;20043;-77
2021/03/02 07:18:21;;;;;;;150.43;44.30;;;2.50;99.90;;;;;;4953415;29;20050;-77
2021/03/02 07:20:53;;;;;;;133.95;41.80;;;2.50;99.90;;;;;;4951139;29;20452;-77
2021/03/02 07:23:23;;;;;;;137.38;40.83;;;2.60;99.90;;;;;;4954913;28;20039;-76
2021/03/02 07:25:55;;;;;;;132.65;40.08;;;2.50;99.90;;;;;;4941418;28;20468;-77
2021/03/02 07:28:25;;;;;;;124.40;39.47;;;2.50;99.90;;;;;;4954663;28;20058;-77
2021/03/02 07:30:54;;;;;;;124.63;38.78;;;2.60;99.90;;;;;;4930079;29;20054;-78
2021/03/02 07:33:20;;;;;;;112.82;39.15;;;2.60;99.90;;;;;;4937558;29;20126;-78
2021/03/02 07:35:47;;;;;;;124.13;38.20;;;2.60;99.90;;;;;;4952844;29;20154;-78
2021/03/02 07:38:19;;;;;;;117.05;38.30;;;2.60;99.90;;;;;;4953941;29;20123;-78
2021/03/02 07:40:55;;;;;;;118.38;38.58;;;2.60;99.80;;;;;;4947534;29;20042;-77
2021/03/02 07:43:27;;;;;;;128.38;43.00;;;2.60;99.90;;;;;;4951457;29;20039;-80
2021/03/02 07:45:55;;;;;;;102.63;37.55;;;2.70;99.90;;;;;;4935910;29;20090;-78
2021/03/02 07:48:38;;;;;;;111.65;37.70;;;2.70;99.80;;;;;;4946372;29;20051;-77
2021/03/02 07:51:23;;;;;;;114.47;36.15;;;2.70;99.80;;;;;;4947501;29;20394;-77
2021/03/02 07:53:52;;;;;;;101.88;35.30;;;2.70;99.80;;;;;;4956470;28;20043;-78
2021/03/02 07:56:22;;;;;;;96.88;35.85;;;2.70;99.80;;;;;;4953326;29;20098;-77
2021/03/02 07:59:11;;;;;;;92.35;37.17;;;2.70;99.80;;;;;;4956368;28;20443;-77
2021/03/02 08:01:38;;;;;;;99.72;37.33;;;2.70;99.70;;;;;;4949306;28;20051;-76
2021/03/02 08:04:23;;;;;;;83.00;32.58;;;2.80;99.80;;;;;;4953540;28;20365;-79
2021/03/02 08:06:52;;;;;;;92.03;35.80;;;2.80;99.60;;;;;;4952586;29;20420;-77
2021/03/02 08:09:24;;;;;;;85.32;34.70;;;2.90;99.60;;;;;;4950628;28;20054;-78
2021/03/02 08:11:51;;;;;;;83.80;35.88;;;2.90;99.60;;;;;;4958366;28;20150;-78
2021/03/02 08:14:17;;;;;;;84.57;34.70;;;2.90;99.50;;;;;;4935393;29;20051;-78
2021/03/02 08:17:05;;;;;;;88.18;37.72;;;3.00;99.50;;;;;;4958603;28;20134;-78
2021/03/02 08:19:34;;;;;;;90.85;35.83;;;3.00;99.40;;;;;;4951024;29;20047;-78
2021/03/02 08:22:02;;;;;;;95.25;35.03;;;3.00;99.40;;;;;;4952777;28;20447;-78
2021/03/02 08:24:53;;;;;;;77.72;34.75;;;3.10;99.30;;;;;;4951637;29;20408;-78
2021/03/02 08:27:39;;;;;;;80.57;34.70;;;3.10;99.20;;;;;;4959406;28;20049;-77
2021/03/02 08:30:36;;;;;;;69.43;32.83;;;3.20;99.20;;;;;;4947460;29;20039;-78
2021/03/02 08:33:11;;;;;;;67.10;33.22;;;3.10;99.10;;;;;;4931404;28;20047;-78
2021/03/02 08:35:41;;;;;;;72.05;33.58;;;3.20;99.20;;;;;;4953346;29;20539;-78
2021/03/02 08:38:12;;;;;;;69.43;31.17;;;3.30;99.10;;;;;;4950622;29;20042;-78
2021/03/02 08:40:38;;;;;;;71.10;30.33;;;3.30;98.80;;;;;;4949912;28;20055;-78
2021/03/02 08:43:08;;;;;;;68.63;32.50;;;3.30;98.80;;;;;;4951902;29;20145;-78
2021/03/02 08:45:47;;;;;;;74.72;32.35;;;3.20;98.60;;;;;;4948562;29;20044;-78
2021/03/02 08:48:17;;;;;;;75.97;32.92;;;3.30;98.70;;;;;;4944846;29;20039;-78
2021/03/02 08:50:44;;;;;;;70.80;35.00;;;3.30;98.70;;;;;;4948053;29;20054;-78
2021/03/02 08:53:26;;;;;;;56.38;29.30;;;3.40;98.80;;;;;;4949830;29;20138;-78
2021/03/02 08:55:52;;;;;;;60.20;31.67;;;3.50;98.90;;;;;;4933921;29;20043;-78
2021/03/02 08:58:29;;;;;;;63.88;32.50;;;3.50;98.70;;;;;;4952060;29;20483;-78
2021/03/02 09:01:17;;;;;;;62.15;34.45;;;3.60;98.60;;;;;;4939531;29;20059;-78
2021/03/02 09:03:45;;;;;;;58.75;31.65;;;3.70;98.70;;;;;;4924704;29;20047;-79
2021/03/02 09:06:32;;;;;;;57.92;30.27;;;3.80;98.70;;;;;;4948048;29;20051;-79
2021/03/02 09:09:08;;;;;;;55.47;29.70;;;3.90;98.40;;;;;;4935306;29;20175;-79
2021/03/02 09:11:43;;;;;;;56.20;28.92;;;4.00;98.10;;;;;;4950000;29;20054;-79
2021/03/02 09:14:36;;;;;;;54.45;31.02;;;3.90;97.90;;;;;;4935386;29;20047;-78
2021/03/02 09:17:06;;;;;;;56.47;31.55;;;3.90;97.80;;;;;;4942691;29;20407;-79
2021/03/02 09:19:40;;;;;;;56.53;30.20;;;4.00;97.90;;;;;;4950075;29;20532;-77
2021/03/02 09:22:14;;;;;;;45.95;27.85;;;4.10;98.00;;;;;;4946971;29;20043;-77
2021/03/02 09:24:45;;;;;;;51.60;30.25;;;4.10;97.70;;;;;;4940765;29;20051;-77
2021/03/02 09:27:19;;;;;;;50.75;30.13;;;4.10;97.40;;;;;;4951340;29;20383;-78
2021/03/02 09:29:51;;;;;;;47.35;28.17;;;4.10;97.30;;;;;;4940940;29;20050;-80
2021/03/02 09:32:27;;;;;;;53.47;29.48;;;4.20;97.50;;;;;;4952588;28;20090;-78
2021/03/02 09:34:58;;;;;;;44.45;26.77;;;4.20;97.40;;;;;;4928407;29;20051;-78
2021/03/02 09:37:24;;;;;;;50.20;28.60;;;4.20;97.20;;;;;;4950117;28;20046;-77
2021/03/02 09:39:59;;;;;;;43.55;27.60;;;4.30;97.30;;;;;;4934501;29;20491;-77
2021/03/02 09:42:28;;;;;;;46.00;29.60;;;4.40;97.20;;;;;;4949870;29;20090;-77
2021/03/02 09:45:02;;;;;;;46.85;28.17;;;4.50;97.10;;;;;;4935351;29;20138;-78
2021/03/02 09:47:30;;;;;;;46.35;29.55;;;4.60;97.20;;;;;;4954268;28;20391;-78
2021/03/02 09:50:01;;;;;;;43.88;28.33;;;4.60;97.00;;;;;;4953272;29;20043;-78
2021/03/02 09:52:51;;;;;;;47.38;29.33;;;4.70;96.90;;;;;;4946424;28;20097;-78
2021/03/02 09:55:32;;;;;;;43.90;27.48;;;4.70;96.80;;;;;;4938557;29;20185;-78
2021/03/02 09:58:11;;;;;;;42.80;28.60;;;4.90;97.00;;;;;;4950761;28;20046;-76
2021/03/02 10:00:46;;;;;;;42.72;28.90;;;4.90;96.70;;;;;;4955012;29;20043;-77
2021/03/02 10:03:22;;;;;;;40.65;26.80;;;5.00;96.50;;;;;;4954194;28;20043;-77
2021/03/02 10:05:55;;;;;;;42.00;26.48;;;5.10;96.20;;;;;;4953346;29;20699;-77
2021/03/02 10:08:34;;;;;;;46.65;29.30;;;5.00;96.40;;;;;;4932246;29;20086;-78
2021/03/02 10:11:17;;;;;;;37.38;24.70;;;5.10;96.10;;;;;;4955976;29;20031;-79
2021/03/02 10:14:01;;;;;;;43.03;27.27;;;5.10;95.80;;;;;;4959899;28;20039;-79
2021/03/02 10:16:30;;;;;;;40.72;27.80;;;5.00;95.80;;;;;;4920886;29;20047;-77
2021/03/02 10:19:03;;;;;;;42.10;27.17;;;5.00;95.90;;;;;;4938801;29;20142;-78
2021/03/02 10:21:39;;;;;;;37.30;25.33;;;5.20;95.90;;;;;;4955519;29;20089;-78
2021/03/02 10:24:06;;;;;;;36.63;24.67;;;5.20;95.80;;;;;;4954340;28;20380;-78
2021/03/02 10:26:34;;;;;;;37.25;25.38;;;5.30;95.50;;;;;;4955203;28;20138;-79
2021/03/02 10:29:00;;;;;;;38.08;25.65;;;5.20;95.40;;;;;;4957849;28;20043;-77
2021/03/02 10:31:30;;;;;;;36.17;24.38;;;5.20;95.30;;;;;;4954378;29;20497;-77
2021/03/02 10:33:55;;;;;;;39.08;26.20;;;5.20;95.50;;;;;;4940362;28;20039;-77
2021/03/02 10:36:33;;;;;;;36.42;25.05;;;5.30;95.40;;;;;;4946006;29;20118;-78
2021/03/02 10:39:00;;;;;;;39.95;26.60;;;5.40;95.10;;;;;;4947523;29;20047;-77
2021/03/02 10:41:27;;;;;;;40.97;26.73;;;5.40;95.00;;;;;;4955109;28;20066;-77
2021/03/02 10:43:54;;;;;;;42.17;27.27;;;5.40;94.90;;;;;;4946280;29;20043;-77
2021/03/02 10:46:21;;;;;;;40.35;27.33;;;5.30;95.10;;;;;;4954368;28;20126;-78
2021/03/02 10:48:48;;;;;;;43.33;28.33;;;5.50;95.50;;;;;;4957505;28;20045;-77
2021/03/02 10:51:15;;;;;;;37.83;24.48;;;5.60;95.60;;;;;;4955431;29;20039;-77
2021/03/02 10:53:42;;;;;;;34.10;24.88;;;5.80;95.40;;;;;;4953271;28;20392;-77
2021/03/02 10:56:08;;;;;;;38.75;26.52;;;6.00;94.80;;;;;;4950120;29;20063;-78
2021/03/02 10:58:35;;;;;;;38.55;25.63;;;6.00;94.40;;;;;;4937615;29;20063;-78
2021/03/02 11:01:01;;;;;;;37.50;26.02;;;6.00;94.00;;;;;;4958765;28;20059;-77
2021/03/02 11:03:27;;;;;;;36.63;25.48;;;5.90;94.00;;;;;;4953698;28;20562;-78
2021/03/02 11:05:53;;;;;;;38.53;26.02;;;5.80;93.90;;;;;;4931503;29;20091;-78
2021/03/02 11:08:19;;;;;;;41.30;26.92;;;5.70;94.10;;;;;;4936190;29;20040;-79
2021/03/02 11:10:46;;;;;;;39.30;26.73;;;5.80;94.40;;;;;;4938378;29;20050;-78
2021/03/02 11:13:12;;;;;;;39.10;27.23;;;5.90;94.50;;;;;;4942313;29;20040;-77
2021/03/02 11:15:38;;;;;;;39.25;26.50;;;6.00;94.70;;;;;;4930857;29;20547;-77
2021/03/02 11:18:04;;;;;;;42.95;28.40;;;6.20;94.60;;;;;;4935323;29;20071;-78
2021/03/02 11:20:31;;;;;;;47.47;29.83;;;6.30;94.40;;;;;;4932417;29;20055;-79
2021/03/02 11:22:57;;;;;;;38.15;26.80;;;6.30;94.40;;;;;;4935284;29;20047;-78
2021/03/02 11:25:23;;;;;;;41.50;27.88;;;6.50;94.40;;;;;;4919451;29;20123;-80
2021/03/02 11:27:51;;;;;;;39.10;27.10;;;6.50;94.20;;;;;;4938485;29;20389;-79
2021/03/02 11:30:18;;;;;;;37.10;26.30;;;6.50;94.20;;;;;;4936459;29;20063;-80
2021/03/02 11:32:45;;;;;;;41.05;27.15;;;6.60;94.10;;;;;;4939737;29;20094;-80
2021/03/02 11:35:11;;;;;;;35.88;25.70;;;6.70;94.10;;;;;;4935770;29;20043;-81
2021/03/02 11:37:41;;;;;;;36.85;26.15;;;6.70;93.70;;;;;;4943735;29;20055;-79
2021/03/02 11:40:10;;;;;;;39.53;28.17;;;6.80;93.50;;;;;;4938294;29;20437;-78
2021/03/02 11:42:37;;;;;;;39.90;27.77;;;6.80;93.50;;;;;;4915070;29;20042;-79
2021/03/02 11:45:06;;;;;;;38.15;26.50;;;6.90;93.60;;;;;;4933263;29;20046;-77
2021/03/02 11:47:33;;;;;;;37.45;26.25;;;7.00;93.70;;;;;;4929721;29;20405;-79
2021/03/02 11:50:00;;;;;;;37.55;27.27;;;7.10;93.70;;;;;;4933889;29;20040;-78
2021/03/02 11:52:27;;;;;;;37.78;26.02;;;7.10;93.50;;;;;;4931804;29;20058;-78
2021/03/02 11:54:53;;;;;;;34.42;24.20;;;7.20;93.50;;;;;;4934009;29;20040;-78
2021/03/02 11:57:19;;;;;;;31.35;23.80;;;7.30;93.10;;;;;;4932069;29;20082;-77
2021/03/02 11:59:45;;;;;;;33.90;25.63;;;7.40;92.50;;;;;;4935196;29;20834;-78
2021/03/02 12:02:12;;;;;;;34.78;25.88;;;7.40;92.50;;;;;;4930844;29;20047;-78
2021/03/02 12:04:39;;;;;;;33.30;25.30;;;7.50;92.50;;;;;;4933576;29;20499;-78
2021/03/02 12:07:04;;;;;;;31.50;24.48;;;7.60;92.40;;;;;;4944643;29;20150;-77
2021/03/02 12:09:31;;;;;;;33.58;24.02;;;7.60;92.20;;;;;;4932246;29;20528;-77
2021/03/02 12:11:57;;;;;;;36.13;25.48;;;7.60;92.10;;;;;;4949261;29;20059;-77
2021/03/02 12:14:23;;;;;;;33.00;23.80;;;7.80;92.20;;;;;;4950704;28;20107;-77
2021/03/02 12:16:50;;;;;;;31.30;23.33;;;7.80;92.00;;;;;;4948000;28;20039;-77
2021/03/02 12:19:17;;;;;;;30.65;23.00;;;7.80;91.80;;;;;;4951952;29;20488;-78
2021/03/02 12:21:43;;;;;;;29.42;21.98;;;7.90;91.70;;;;;;4932492;29;20098;-77
2021/03/02 12:24:09;;;;;;;31.42;23.65;;;8.00;91.50;;;;;;4935671;29;20043;-77
2021/03/02 12:26:35;;;;;;;28.58;22.23;;;8.10;91.50;;;;;;4945046;29;20060;-77
2021/03/02 12:29:01;;;;;;;32.05;23.02;;;8.20;90.90;;;;;;4948642;29;20123;-77
2021/03/02 12:31:27;;;;;;;31.13;22.40;;;8.30;91.30;;;;;;4950392;28;20035;-77
2021/03/02 12:33:54;;;;;;;30.63;24.05;;;8.30;90.60;;;;;;4933058;29;20059;-78
2021/03/02 12:36:23;;;;;;;30.95;23.27;;;8.40;90.50;;;;;;4951862;28;20487;-77
2021/03/02 12:38:49;;;;;;;28.48;21.45;;;8.40;90.80;;;;;;4944681;28;20046;-79
2021/03/02 12:41:15;;;;;;;32.65;23.52;;;8.40;90.60;;;;;;4946282;28;20429;-78
2021/03/02 12:43:41;;;;;;;29.17;21.92;;;8.50;90.70;;;;;;4946051;28;20132;-77